sensor_id;sensor_type;location;lat;lon;timestamp;temperature;humidity
7143;DHT22;3613;48.902;9.204;2024-03-25T00:01:42;18.70;99.90
7143;DHT22;3613;48.902;9.204;2024-03-25T00:04:07;18.70;99.90
7143;DHT22;3613;48.902;9.204;2024-03-25T00:06:33;18.60;99.90
7143;DHT22;3613;48.902;9.204;2024-03-25T00:09:03;18.60;99.90
7143;DHT22;3613;48.902;9.204;2024-03-25T00:11:29;18.70;99.90
7143;DHT22;3613;48.902;9.204;2024-03-25T00:13:54;18.70;99.90
7143;DHT22;3613;48.902;9.204;2024-03-25T00:16:20;18.70;99.90
7143;DHT22;3613;48.902;9.204;2024-03-25T00:18:46;18.70;99.90
7143;DHT22;3613;48.902;9.204;2024-03-25T00:21:11;18.60;99.90
7143;DHT22;3613;48.902;9.204;2024-03-25T00:23:41;18.80;99.90
7143;DHT22;3613;48.902;9.204;2024-03-25T00:26:07;18.60;99.90
7143;DHT22;3613;48.902;9.204;2024-03-25T00:28:32;18.50;99.90
7143;DHT22;3613;48.902;9.204;2024-03-25T00:31:01;18.60;99.90
7143;DHT22;3613;48.902;9.204;2024-03-25T00:33:26;18.60;99.90
7143;DHT22;3613;48.902;9.204;2024-03-25T00:35:52;18.60;99.90
7143;DHT22;3613;48.902;9.204;2024-03-25T00:38:18;18.60;99.90
7143;DHT22;3613;48.902;9.204;2024-03-25T00:40:47;18.70;99.90
7143;DHT22;3613;48.902;9.204;2024-03-25T00:43:12;18.60;99.90
7143;DHT22;3613;48.902;9.204;2024-03-25T00:45:38;18.50;99.90
7143;DHT22;3613;48.902;9.204;2024-03-25T00:48:04;18.60;99.90
7143;DHT22;3613;48.902;9.204;2024-03-25T00:50:30;18.60;99.90
7143;DHT22;3613;48.902;9.204;2024-03-25T00:52:56;18.60;99.90
7143;DHT22;3613;48.902;9.204;2024-03-25T00:55:24;18.60;99.90
7143;DHT22;3613;48.902;9.204;2024-03-25T00:57:50;18.60;99.90
7143;DHT22;3613;48.902;9.204;2024-03-25T01:00:16;18.50;99.90
7143;DHT22;3613;48.902;9.204;2024-03-25T01:02:44;17.50;99.90
7143;DHT22;3613;48.902;9.204;2024-03-25T01:05:10;18.60;99.90
7143;DHT22;3613;48.902;9.204;2024-03-25T01:07:38;18.60;99.90
7143;DHT22;3613;48.902;9.204;2024-03-25T01:10:05;18.60;99.90
7143;DHT22;3613;48.902;9.204;2024-03-25T01:12:31;18.50;99.90
7143;DHT22;3613;48.902;9.204;2024-03-25T01:14:57;18.60;99.90
7143;DHT22;3613;48.902;9.204;2024-03-25T01:17:22;18.50;99.90
7143;DHT22;3613;48.902;9.204;2024-03-25T01:19:48;18.50;99.90
7143;DHT22;3613;48.902;9.204;2024-03-25T01:22:14;18.60;99.90
7143;DHT22;3613;48.902;9.204;2024-03-25T01:24:40;18.50;99.90
7143;DHT22;3613;48.902;9.204;2024-03-25T01:27:05;18.50;99.90
7143;DHT22;3613;48.902;9.204;2024-03-25T01:29:31;18.50;99.90
7143;DHT22;3613;48.902;9.204;2024-03-25T01:31:58;18.50;99.90
7143;DHT22;3613;48.902;9.204;2024-03-25T01:34:25;18.50;99.90
7143;DHT22;3613;48.902;9.204;2024-03-25T01:36:53;18.50;99.90
7143;DHT22;3613;48.902;9.204;2024-03-25T01:39:19;18.50;99.90
7143;DHT22;3613;48.902;9.204;2024-03-25T01:41:44;18.50;99.90
7143;DHT22;3613;48.902;9.204;2024-03-25T01:44:12;18.50;99.90
7143;DHT22;3613;48.902;9.204;2024-03-25T01:46:40;18.40;99.90
7143;DHT22;3613;48.902;9.204;2024-03-25T01:49:08;18.50;99.90
7143;DHT22;3613;48.902;9.204;2024-03-25T01:51:34;18.50;99.90
7143;DHT22;3613;48.902;9.204;2024-03-25T01:54:01;18.50;99.90
7143;DHT22;3613;48.902;9.204;2024-03-25T01:56:31;18.50;99.90
7143;DHT22;3613;48.902;9.204;2024-03-25T01:58:57;18.50;99.90
7143;DHT22;3613;48.902;9.204;2024-03-25T02:01:22;18.50;99.90
7143;DHT22;3613;48.902;9.204;2024-03-25T02:03:48;18.40;99.90
7143;DHT22;3613;48.902;9.204;2024-03-25T02:06:16;18.40;99.90
7143;DHT22;3613;48.902;9.204;2024-03-25T02:08:45;18.40;99.90
7143;DHT22;3613;48.902;9.204;2024-03-25T02:11:13;18.50;99.90
7143;DHT22;3613;48.902;9.204;2024-03-25T02:13:39;18.40;99.90
7143;DHT22;3613;48.902;9.204;2024-03-25T02:16:05;18.50;99.90
7143;DHT22;3613;48.902;9.204;2024-03-25T02:18:33;18.40;99.90
7143;DHT22;3613;48.902;9.204;2024-03-25T02:20:59;18.40;99.90
7143;DHT22;3613;48.902;9.204;2024-03-25T02:23:26;18.40;99.90
7143;DHT22;3613;48.902;9.204;2024-03-25T02:25:53;18.50;99.90
7143;DHT22;3613;48.902;9.204;2024-03-25T02:28:19;18.60;99.90
7143;DHT22;3613;48.902;9.204;2024-03-25T02:30:44;18.40;99.90
7143;DHT22;3613;48.902;9.204;2024-03-25T02:33:10;18.70;99.90
7143;DHT22;3613;48.902;9.204;2024-03-25T02:35:38;18.40;99.90
7143;DHT22;3613;48.902;9.204;2024-03-25T02:38:05;18.40;99.90
7143;DHT22;3613;48.902;9.204;2024-03-25T02:40:34;18.40;99.90
7143;DHT22;3613;48.902;9.204;2024-03-25T02:43:00;18.40;99.90
7143;DHT22;3613;48.902;9.204;2024-03-25T02:45:26;18.40;99.90
7143;DHT22;3613;48.902;9.204;2024-03-25T02:47:51;18.40;99.90
7143;DHT22;3613;48.902;9.204;2024-03-25T02:50:22;18.40;99.90
7143;DHT22;3613;48.902;9.204;2024-03-25T02:52:48;18.30;99.90
7143;DHT22;3613;48.902;9.204;2024-03-25T02:55:18;18.30;99.90
7143;DHT22;3613;48.902;9.204;2024-03-25T02:57:44;18.40;99.90
7143;DHT22;3613;48.902;9.204;2024-03-25T03:00:12;18.40;99.90
7143;DHT22;3613;48.902;9.204;2024-03-25T03:02:38;18.30;99.90
7143;DHT22;3613;48.902;9.204;2024-03-25T03:05:05;18.40;99.90
7143;DHT22;3613;48.902;9.204;2024-03-25T03:07:30;18.30;99.90
7143;DHT22;3613;48.902;9.204;2024-03-25T03:09:56;18.40;99.90
7143;DHT22;3613;48.902;9.204;2024-03-25T03:12:24;18.30;99.90
7143;DHT22;3613;48.902;9.204;2024-03-25T03:14:50;18.30;99.90
7143;DHT22;3613;48.902;9.204;2024-03-25T03:17:18;18.30;99.90
7143;DHT22;3613;48.902;9.204;2024-03-25T03:19:43;18.30;99.90
7143;DHT22;3613;48.902;9.204;2024-03-25T03:22:10;18.30;99.90
7143;DHT22;3613;48.902;9.204;2024-03-25T03:24:35;18.60;99.90
7143;DHT22;3613;48.902;9.204;2024-03-25T03:27:01;18.30;99.90
7143;DHT22;3613;48.902;9.204;2024-03-25T03:29:26;18.30;99.90
7143;DHT22;3613;48.902;9.204;2024-03-25T03:31:52;18.30;99.90
7143;DHT22;3613;48.902;9.204;2024-03-25T03:34:20;18.30;99.90
7143;DHT22;3613;48.902;9.204;2024-03-25T03:36:48;18.20;99.90
7143;DHT22;3613;48.902;9.204;2024-03-25T03:39:15;18.30;99.90
7143;DHT22;3613;48.902;9.204;2024-03-25T03:41:41;18.30;99.90
7143;DHT22;3613;48.902;9.204;2024-03-25T03:44:06;18.30;99.90
7143;DHT22;3613;48.902;9.204;2024-03-25T03:46:34;18.30;99.90
7143;DHT22;3613;48.902;9.204;2024-03-25T03:49:00;18.30;99.90
7143;DHT22;3613;48.902;9.204;2024-03-25T03:51:26;18.40;99.90
7143;DHT22;3613;48.902;9.204;2024-03-25T03:53:51;18.30;99.90
7143;DHT22;3613;48.902;9.204;2024-03-25T03:56:19;18.30;99.90
7143;DHT22;3613;48.902;9.204;2024-03-25T03:58:47;18.30;99.90
7143;DHT22;3613;48.902;9.204;2024-03-25T04:01:17;18.30;99.90
7143;DHT22;3613;48.902;9.204;2024-03-25T04:03:45;18.30;99.90
7143;DHT22;3613;48.902;9.204;2024-03-25T04:06:11;18.30;99.90
7143;DHT22;3613;48.902;9.204;2024-03-25T04:08:40;18.30;99.90
7143;DHT22;3613;48.902;9.204;2024-03-25T04:11:06;18.20;99.90
7143;DHT22;3613;48.902;9.204;2024-03-25T04:13:35;18.20;99.90
7143;DHT22;3613;48.902;9.204;2024-03-25T04:16:05;18.30;99.90
7143;DHT22;3613;48.902;9.204;2024-03-25T04:18:32;18.20;99.90
7143;DHT22;3613;48.902;9.204;2024-03-25T04:21:02;18.20;99.90
7143;DHT22;3613;48.902;9.204;2024-03-25T04:23:28;18.20;99.90
7143;DHT22;3613;48.902;9.204;2024-03-25T04:25:55;18.20;99.90
7143;DHT22;3613;48.902;9.204;2024-03-25T04:28:25;18.20;99.90
7143;DHT22;3613;48.902;9.204;2024-03-25T04:30:53;18.20;99.90
7143;DHT22;3613;48.902;9.204;2024-03-25T04:33:21;18.20;99.90
7143;DHT22;3613;48.902;9.204;2024-03-25T04:35:47;18.20;99.90
7143;DHT22;3613;48.902;9.204;2024-03-25T04:38:15;18.30;99.90
7143;DHT22;3613;48.902;9.204;2024-03-25T04:40:41;18.20;99.90
7143;DHT22;3613;48.902;9.204;2024-03-25T04:43:09;18.20;99.90
7143;DHT22;3613;48.902;9.204;2024-03-25T04:45:35;18.20;99.90
7143;DHT22;3613;48.902;9.204;2024-03-25T04:48:00;18.20;99.90
7143;DHT22;3613;48.902;9.204;2024-03-25T04:50:26;18.20;99.90
7143;DHT22;3613;48.902;9.204;2024-03-25T04:52:54;18.20;99.90
7143;DHT22;3613;48.902;9.204;2024-03-25T04:55:22;18.20;99.90
7143;DHT22;3613;48.902;9.204;2024-03-25T04:57:48;18.10;99.90
7143;DHT22;3613;48.902;9.204;2024-03-25T05:00:13;18.20;99.90
7143;DHT22;3613;48.902;9.204;2024-03-25T05:02:39;18.20;99.90
7143;DHT22;3613;48.902;9.204;2024-03-25T05:05:07;18.10;99.90
7143;DHT22;3613;48.902;9.204;2024-03-25T05:07:33;18.20;99.90
7143;DHT22;3613;48.902;9.204;2024-03-25T05:09:59;18.20;99.90
7143;DHT22;3613;48.902;9.204;2024-03-25T05:12:25;18.10;99.90
7143;DHT22;3613;48.902;9.204;2024-03-25T05:14:55;18.20;99.90
7143;DHT22;3613;48.902;9.204;2024-03-25T05:17:21;18.20;99.90
7143;DHT22;3613;48.902;9.204;2024-03-25T05:19:49;18.10;99.90
7143;DHT22;3613;48.902;9.204;2024-03-25T05:22:17;18.20;99.90
7143;DHT22;3613;48.902;9.204;2024-03-25T05:24:43;18.10;99.90
7143;DHT22;3613;48.902;9.204;2024-03-25T05:27:08;18.40;99.90
7143;DHT22;3613;48.902;9.204;2024-03-25T05:29:34;18.20;99.90
7143;DHT22;3613;48.902;9.204;2024-03-25T05:32:01;18.10;99.90
7143;DHT22;3613;48.902;9.204;2024-03-25T05:34:28;18.10;99.90
7143;DHT22;3613;48.902;9.204;2024-03-25T05:36:54;18.10;99.90
7143;DHT22;3613;48.902;9.204;2024-03-25T05:39:20;18.10;99.90
7143;DHT22;3613;48.902;9.204;2024-03-25T05:41:46;18.20;99.90
7143;DHT22;3613;48.902;9.204;2024-03-25T05:44:12;18.10;99.90
7143;DHT22;3613;48.902;9.204;2024-03-25T05:46:39;18.10;99.90
7143;DHT22;3613;48.902;9.204;2024-03-25T05:49:09;18.20;99.90
7143;DHT22;3613;48.902;9.204;2024-03-25T05:51:36;18.10;99.90
7143;DHT22;3613;48.902;9.204;2024-03-25T05:54:02;18.10;99.90
7143;DHT22;3613;48.902;9.204;2024-03-25T05:56:28;18.10;99.90
7143;DHT22;3613;48.902;9.204;2024-03-25T05:59:00;18.10;99.90
7143;DHT22;3613;48.902;9.204;2024-03-25T06:01:26;18.10;99.90
7143;DHT22;3613;48.902;9.204;2024-03-25T06:03:52;18.10;99.90
7143;DHT22;3613;48.902;9.204;2024-03-25T06:06:17;18.10;99.90
7143;DHT22;3613;48.902;9.204;2024-03-25T06:08:43;18.10;99.90
7143;DHT22;3613;48.902;9.204;2024-03-25T06:11:09;18.20;99.90
7143;DHT22;3613;48.902;9.204;2024-03-25T06:13:35;18.10;99.90
7143;DHT22;3613;48.902;9.204;2024-03-25T06:16:00;18.10;99.90
7143;DHT22;3613;48.902;9.204;2024-03-25T06:18:26;18.10;99.90
7143;DHT22;3613;48.902;9.204;2024-03-25T06:20:51;18.10;99.90
7143;DHT22;3613;48.902;9.204;2024-03-25T06:23:26;18.20;99.90
7143;DHT22;3613;48.902;9.204;2024-03-25T06:25:54;18.10;99.90
7143;DHT22;3613;48.902;9.204;2024-03-25T06:28:22;18.10;99.90
7143;DHT22;3613;48.902;9.204;2024-03-25T06:30:49;18.10;99.90
7143;DHT22;3613;48.902;9.204;2024-03-25T06:33:33;18.10;99.90
7143;DHT22;3613;48.902;9.204;2024-03-25T06:36:18;18.10;99.90
7143;DHT22;3613;48.902;9.204;2024-03-25T06:38:44;18.30;99.90
7143;DHT22;3613;48.902;9.204;2024-03-25T06:41:10;18.30;99.90
7143;DHT22;3613;48.902;9.204;2024-03-25T06:43:36;18.40;99.90
7143;DHT22;3613;48.902;9.204;2024-03-25T06:46:03;18.40;99.90
7143;DHT22;3613;48.902;9.204;2024-03-25T06:48:29;18.50;99.90
7143;DHT22;3613;48.902;9.204;2024-03-25T06:50:55;18.60;99.90
7143;DHT22;3613;48.902;9.204;2024-03-25T06:53:24;18.70;99.90
7143;DHT22;3613;48.902;9.204;2024-03-25T06:55:53;18.70;99.90
7143;DHT22;3613;48.902;9.204;2024-03-25T06:58:20;18.80;99.90
7143;DHT22;3613;48.902;9.204;2024-03-25T07:00:48;18.90;99.90
7143;DHT22;3613;48.902;9.204;2024-03-25T07:03:17;18.90;99.90
7143;DHT22;3613;48.902;9.204;2024-03-25T07:05:47;19.00;99.90
7143;DHT22;3613;48.902;9.204;2024-03-25T07:08:15;19.00;99.90
7143;DHT22;3613;48.902;9.204;2024-03-25T07:10:41;19.10;99.90
7143;DHT22;3613;48.902;9.204;2024-03-25T07:13:07;19.20;99.90
7143;DHT22;3613;48.902;9.204;2024-03-25T07:15:33;19.20;99.90
7143;DHT22;3613;48.902;9.204;2024-03-25T07:17:59;19.20;99.90
7143;DHT22;3613;48.902;9.204;2024-03-25T07:20:25;19.30;99.90
7143;DHT22;3613;48.902;9.204;2024-03-25T07:22:52;19.30;99.90
7143;DHT22;3613;48.902;9.204;2024-03-25T07:25:20;19.30;99.90
7143;DHT22;3613;48.902;9.204;2024-03-25T07:27:45;19.40;99.90
7143;DHT22;3613;48.902;9.204;2024-03-25T07:30:11;19.30;99.90
7143;DHT22;3613;48.902;9.204;2024-03-25T07:32:39;19.50;99.90
7143;DHT22;3613;48.902;9.204;2024-03-25T07:35:04;19.40;99.90
7143;DHT22;3613;48.902;9.204;2024-03-25T07:37:37;19.50;99.90
7143;DHT22;3613;48.902;9.204;2024-03-25T07:40:03;19.50;99.90
7143;DHT22;3613;48.902;9.204;2024-03-25T07:42:29;19.50;99.90
7143;DHT22;3613;48.902;9.204;2024-03-25T07:44:55;19.50;99.90
7143;DHT22;3613;48.902;9.204;2024-03-25T07:47:23;19.50;99.90
7143;DHT22;3613;48.902;9.204;2024-03-25T07:49:51;19.50;99.90
7143;DHT22;3613;48.902;9.204;2024-03-25T07:52:17;19.60;99.90
7143;DHT22;3613;48.902;9.204;2024-03-25T07:54:44;19.70;99.90
7143;DHT22;3613;48.902;9.204;2024-03-25T07:57:09;19.70;99.90
7143;DHT22;3613;48.902;9.204;2024-03-25T07:59:35;19.80;99.90
7143;DHT22;3613;48.902;9.204;2024-03-25T08:02:00;19.70;99.90
7143;DHT22;3613;48.902;9.204;2024-03-25T08:04:31;19.70;99.90
7143;DHT22;3613;48.902;9.204;2024-03-25T08:06:56;19.60;99.90
7143;DHT22;3613;48.902;9.204;2024-03-25T08:09:24;19.60;99.90
7143;DHT22;3613;48.902;9.204;2024-03-25T08:11:50;19.60;99.90
7143;DHT22;3613;48.902;9.204;2024-03-25T08:14:15;19.50;99.90
7143;DHT22;3613;48.902;9.204;2024-03-25T08:16:43;19.60;99.90
7143;DHT22;3613;48.902;9.204;2024-03-25T08:19:08;19.70;99.90
7143;DHT22;3613;48.902;9.204;2024-03-25T08:21:34;19.60;99.90
7143;DHT22;3613;48.902;9.204;2024-03-25T08:24:00;19.80;99.90
7143;DHT22;3613;48.902;9.204;2024-03-25T08:26:27;19.70;99.90
7143;DHT22;3613;48.902;9.204;2024-03-25T08:28:53;19.80;99.90
7143;DHT22;3613;48.902;9.204;2024-03-25T08:31:21;19.80;99.90
7143;DHT22;3613;48.902;9.204;2024-03-25T08:33:47;19.90;99.90
7143;DHT22;3613;48.902;9.204;2024-03-25T08:36:12;19.90;99.90
7143;DHT22;3613;48.902;9.204;2024-03-25T08:38:40;19.90;99.90
7143;DHT22;3613;48.902;9.204;2024-03-25T08:41:06;20.00;99.90
7143;DHT22;3613;48.902;9.204;2024-03-25T08:43:31;20.10;99.90
7143;DHT22;3613;48.902;9.204;2024-03-25T08:45:57;20.10;99.90
7143;DHT22;3613;48.902;9.204;2024-03-25T08:48:23;20.10;99.90
7143;DHT22;3613;48.902;9.204;2024-03-25T08:50:49;20.20;99.90
7143;DHT22;3613;48.902;9.204;2024-03-25T08:53:15;20.30;99.90
7143;DHT22;3613;48.902;9.204;2024-03-25T08:55:45;20.30;99.90
7143;DHT22;3613;48.902;9.204;2024-03-25T08:58:14;20.40;99.90
7143;DHT22;3613;48.902;9.204;2024-03-25T09:00:40;20.40;99.90
7143;DHT22;3613;48.902;9.204;2024-03-25T09:03:06;20.30;99.90
7143;DHT22;3613;48.902;9.204;2024-03-25T09:05:31;20.30;99.90
7143;DHT22;3613;48.902;9.204;2024-03-25T09:07:57;20.40;99.90
7143;DHT22;3613;48.902;9.204;2024-03-25T09:10:24;20.40;99.90
7143;DHT22;3613;48.902;9.204;2024-03-25T09:13:08;20.40;99.90
7143;DHT22;3613;48.902;9.204;2024-03-25T09:15:34;20.40;99.90
7143;DHT22;3613;48.902;9.204;2024-03-25T09:17:59;20.40;99.90
7143;DHT22;3613;48.902;9.204;2024-03-25T09:20:28;20.30;99.90
7143;DHT22;3613;48.902;9.204;2024-03-25T09:22:53;20.40;99.90
7143;DHT22;3613;48.902;9.204;2024-03-25T09:25:19;20.20;99.90
7143;DHT22;3613;48.902;9.204;2024-03-25T09:27:49;20.30;99.90
7143;DHT22;3613;48.902;9.204;2024-03-25T09:30:15;20.30;99.90
7143;DHT22;3613;48.902;9.204;2024-03-25T09:32:42;20.20;99.90
7143;DHT22;3613;48.902;9.204;2024-03-25T09:35:08;20.30;99.90
7143;DHT22;3613;48.902;9.204;2024-03-25T09:37:34;20.30;99.90
7143;DHT22;3613;48.902;9.204;2024-03-25T09:40:00;20.30;99.90
7143;DHT22;3613;48.902;9.204;2024-03-25T09:42:27;20.40;99.90
7143;DHT22;3613;48.902;9.204;2024-03-25T09:44:56;20.40;99.90
7143;DHT22;3613;48.902;9.204;2024-03-25T09:47:23;20.50;99.90
7143;DHT22;3613;48.902;9.204;2024-03-25T09:49:48;20.50;99.90
7143;DHT22;3613;48.902;9.204;2024-03-25T09:52:17;20.50;99.90
7143;DHT22;3613;48.902;9.204;2024-03-25T09:54:43;20.50;99.90
7143;DHT22;3613;48.902;9.204;2024-03-25T09:57:09;20.50;99.90
7143;DHT22;3613;48.902;9.204;2024-03-25T09:59:34;20.40;99.90
7143;DHT22;3613;48.902;9.204;2024-03-25T10:02:01;20.50;99.90
7143;DHT22;3613;48.902;9.204;2024-03-25T10:04:28;20.60;99.90
7143;DHT22;3613;48.902;9.204;2024-03-25T10:06:53;20.60;99.90
7143;DHT22;3613;48.902;9.204;2024-03-25T10:09:22;20.60;99.90
7143;DHT22;3613;48.902;9.204;2024-03-25T10:11:48;20.60;99.90
7143;DHT22;3613;48.902;9.204;2024-03-25T10:14:18;20.50;99.90
7143;DHT22;3613;48.902;9.204;2024-03-25T10:16:48;20.50;99.90
7143;DHT22;3613;48.902;9.204;2024-03-25T10:19:14;20.60;99.90
7143;DHT22;3613;48.902;9.204;2024-03-25T10:21:40;20.60;99.90
7143;DHT22;3613;48.902;9.204;2024-03-25T10:24:06;20.40;99.90
7143;DHT22;3613;48.902;9.204;2024-03-25T10:26:32;20.60;99.90
7143;DHT22;3613;48.902;9.204;2024-03-25T10:29:05;20.60;99.90
7143;DHT22;3613;48.902;9.204;2024-03-25T10:31:36;20.60;99.90
7143;DHT22;3613;48.902;9.204;2024-03-25T10:34:04;20.50;99.90
7143;DHT22;3613;48.902;9.204;2024-03-25T10:36:30;20.50;99.90
7143;DHT22;3613;48.902;9.204;2024-03-25T10:38:57;20.50;99.90
7143;DHT22;3613;48.902;9.204;2024-03-25T10:41:30;20.60;99.90
7143;DHT22;3613;48.902;9.204;2024-03-25T10:43:58;20.50;99.90
7143;DHT22;3613;48.902;9.204;2024-03-25T10:46:25;20.50;99.90
7143;DHT22;3613;48.902;9.204;2024-03-25T10:51:25;20.50;99.90
7143;DHT22;3613;48.902;9.204;2024-03-25T10:53:52;20.50;99.90
7143;DHT22;3613;48.902;9.204;2024-03-25T10:56:21;20.50;99.90
7143;DHT22;3613;48.902;9.204;2024-03-25T10:58:48;20.40;99.90
7143;DHT22;3613;48.902;9.204;2024-03-25T11:01:17;20.50;99.90
7143;DHT22;3613;48.902;9.204;2024-03-25T11:03:46;20.60;99.90
7143;DHT22;3613;48.902;9.204;2024-03-25T11:06:13;20.50;99.90
7143;DHT22;3613;48.902;9.204;2024-03-25T11:08:39;20.60;99.90
7143;DHT22;3613;48.902;9.204;2024-03-25T11:11:07;20.50;99.90
7143;DHT22;3613;48.902;9.204;2024-03-25T11:13:33;20.40;99.90
7143;DHT22;3613;48.902;9.204;2024-03-25T11:15:59;20.50;99.90
7143;DHT22;3613;48.902;9.204;2024-03-25T11:18:26;20.40;99.90
7143;DHT22;3613;48.902;9.204;2024-03-25T11:21:02;20.40;99.90
7143;DHT22;3613;48.902;9.204;2024-03-25T11:23:41;20.40;99.90
7143;DHT22;3613;48.902;9.204;2024-03-25T11:26:20;20.40;99.90
7143;DHT22;3613;48.902;9.204;2024-03-25T11:28:48;20.40;99.90
7143;DHT22;3613;48.902;9.204;2024-03-25T11:31:17;20.40;99.90
7143;DHT22;3613;48.902;9.204;2024-03-25T11:33:44;20.40;99.90
7143;DHT22;3613;48.902;9.204;2024-03-25T11:36:10;20.50;99.90
7143;DHT22;3613;48.902;9.204;2024-03-25T11:38:37;20.50;99.90
7143;DHT22;3613;48.902;9.204;2024-03-25T11:41:06;20.50;99.90
7143;DHT22;3613;48.902;9.204;2024-03-25T11:43:32;20.50;99.90
7143;DHT22;3613;48.902;9.204;2024-03-25T11:45:58;20.50;99.90
7143;DHT22;3613;48.902;9.204;2024-03-25T11:48:26;20.60;99.90
7143;DHT22;3613;48.902;9.204;2024-03-25T11:50:52;20.60;99.90
7143;DHT22;3613;48.902;9.204;2024-03-25T11:53:18;20.50;99.90
7143;DHT22;3613;48.902;9.204;2024-03-25T11:55:47;20.60;99.90
7143;DHT22;3613;48.902;9.204;2024-03-25T11:58:17;20.60;99.90
7143;DHT22;3613;48.902;9.204;2024-03-25T12:00:46;20.50;99.90
7143;DHT22;3613;48.902;9.204;2024-03-25T12:03:15;20.60;99.90
7143;DHT22;3613;48.902;9.204;2024-03-25T12:05:46;20.70;99.90
7143;DHT22;3613;48.902;9.204;2024-03-25T12:08:12;20.50;99.90
7143;DHT22;3613;48.902;9.204;2024-03-25T12:10:40;20.60;99.90
7143;DHT22;3613;48.902;9.204;2024-03-25T12:13:25;20.60;99.90
7143;DHT22;3613;48.902;9.204;2024-03-25T12:15:54;20.60;99.90
7143;DHT22;3613;48.902;9.204;2024-03-25T12:18:22;20.60;99.90
7143;DHT22;3613;48.902;9.204;2024-03-25T12:20:50;20.60;99.90
7143;DHT22;3613;48.902;9.204;2024-03-25T12:23:17;20.60;99.90
7143;DHT22;3613;48.902;9.204;2024-03-25T12:25:51;20.60;99.90
7143;DHT22;3613;48.902;9.204;2024-03-25T12:28:16;20.60;99.90
7143;DHT22;3613;48.902;9.204;2024-03-25T12:30:53;20.60;99.90
7143;DHT22;3613;48.902;9.204;2024-03-25T12:33:20;20.60;99.90
7143;DHT22;3613;48.902;9.204;2024-03-25T12:35:49;20.60;99.90
7143;DHT22;3613;48.902;9.204;2024-03-25T12:38:28;20.60;99.90
7143;DHT22;3613;48.902;9.204;2024-03-25T12:41:02;20.60;99.90
7143;DHT22;3613;48.902;9.204;2024-03-25T12:43:31;20.60;99.90
7143;DHT22;3613;48.902;9.204;2024-03-25T12:45:57;20.60;99.90
7143;DHT22;3613;48.902;9.204;2024-03-25T12:48:23;20.60;99.90
7143;DHT22;3613;48.902;9.204;2024-03-25T12:50:52;20.60;99.90
7143;DHT22;3613;48.902;9.204;2024-03-25T12:53:19;20.70;99.90
7143;DHT22;3613;48.902;9.204;2024-03-25T12:55:45;20.70;99.90
7143;DHT22;3613;48.902;9.204;2024-03-25T12:58:11;20.60;99.90
7143;DHT22;3613;48.902;9.204;2024-03-25T13:00:37;20.60;99.90
7143;DHT22;3613;48.902;9.204;2024-03-25T13:03:04;20.60;99.90
7143;DHT22;3613;48.902;9.204;2024-03-25T13:05:30;20.70;99.90
7143;DHT22;3613;48.902;9.204;2024-03-25T13:07:55;20.70;99.90
7143;DHT22;3613;48.902;9.204;2024-03-25T13:10:23;20.70;99.90
7143;DHT22;3613;48.902;9.204;2024-03-25T13:12:49;20.70;99.90
7143;DHT22;3613;48.902;9.204;2024-03-25T13:15:15;20.70;99.90
7143;DHT22;3613;48.902;9.204;2024-03-25T13:17:40;20.70;99.90
7143;DHT22;3613;48.902;9.204;2024-03-25T13:20:06;20.70;99.90
7143;DHT22;3613;48.902;9.204;2024-03-25T13:22:32;20.70;99.90
7143;DHT22;3613;48.902;9.204;2024-03-25T13:24:59;20.70;99.90
7143;DHT22;3613;48.902;9.204;2024-03-25T13:27:25;20.70;99.90
7143;DHT22;3613;48.902;9.204;2024-03-25T13:29:51;20.70;99.90
7143;DHT22;3613;48.902;9.204;2024-03-25T13:32:20;20.60;99.90
7143;DHT22;3613;48.902;9.204;2024-03-25T13:34:46;20.70;99.90
7143;DHT22;3613;48.902;9.204;2024-03-25T13:37:12;20.70;99.90
7143;DHT22;3613;48.902;9.204;2024-03-25T13:39:38;20.70;99.90
7143;DHT22;3613;48.902;9.204;2024-03-25T13:42:05;20.70;99.90
7143;DHT22;3613;48.902;9.204;2024-03-25T13:44:35;20.70;99.90
7143;DHT22;3613;48.902;9.204;2024-03-25T13:47:01;20.70;99.90
7143;DHT22;3613;48.902;9.204;2024-03-25T13:49:27;20.70;99.90
7143;DHT22;3613;48.902;9.204;2024-03-25T13:51:57;20.70;99.90
7143;DHT22;3613;48.902;9.204;2024-03-25T13:54:29;20.70;99.90
7143;DHT22;3613;48.902;9.204;2024-03-25T13:56:58;20.70;99.90
7143;DHT22;3613;48.902;9.204;2024-03-25T13:59:24;20.70;99.90
7143;DHT22;3613;48.902;9.204;2024-03-25T14:01:51;20.70;99.90
7143;DHT22;3613;48.902;9.204;2024-03-25T14:04:19;20.60;99.90
7143;DHT22;3613;48.902;9.204;2024-03-25T14:06:45;20.70;99.90
7143;DHT22;3613;48.902;9.204;2024-03-25T14:09:25;20.60;99.90
7143;DHT22;3613;48.902;9.204;2024-03-25T14:11:51;20.60;99.90
7143;DHT22;3613;48.902;9.204;2024-03-25T14:14:17;20.70;99.90
7143;DHT22;3613;48.902;9.204;2024-03-25T14:16:43;20.60;99.90
7143;DHT22;3613;48.902;9.204;2024-03-25T14:19:08;20.60;99.90
7143;DHT22;3613;48.902;9.204;2024-03-25T14:21:36;20.60;99.90
7143;DHT22;3613;48.902;9.204;2024-03-25T14:24:05;20.60;99.90
7143;DHT22;3613;48.902;9.204;2024-03-25T14:26:31;20.60;99.90
7143;DHT22;3613;48.902;9.204;2024-03-25T14:28:57;20.60;99.90
7143;DHT22;3613;48.902;9.204;2024-03-25T14:31:22;20.60;99.90
7143;DHT22;3613;48.902;9.204;2024-03-25T14:33:48;20.60;99.90
7143;DHT22;3613;48.902;9.204;2024-03-25T14:36:14;20.60;99.90
7143;DHT22;3613;48.902;9.204;2024-03-25T14:38:39;20.60;99.90
7143;DHT22;3613;48.902;9.204;2024-03-25T14:41:05;20.60;99.90
7143;DHT22;3613;48.902;9.204;2024-03-25T14:43:31;20.70;99.90
7143;DHT22;3613;48.902;9.204;2024-03-25T14:45:56;20.60;99.90
7143;DHT22;3613;48.902;9.204;2024-03-25T14:48:24;20.60;99.90
7143;DHT22;3613;48.902;9.204;2024-03-25T14:50:50;20.60;99.90
7143;DHT22;3613;48.902;9.204;2024-03-25T14:53:18;20.60;99.90
7143;DHT22;3613;48.902;9.204;2024-03-25T14:55:46;20.50;99.90
7143;DHT22;3613;48.902;9.204;2024-03-25T14:58:11;20.60;99.90
7143;DHT22;3613;48.902;9.204;2024-03-25T15:00:39;20.70;99.90
7143;DHT22;3613;48.902;9.204;2024-03-25T15:03:05;20.60;99.90
7143;DHT22;3613;48.902;9.204;2024-03-25T15:05:33;20.60;99.90
7143;DHT22;3613;48.902;9.204;2024-03-25T15:07:58;20.60;99.90
7143;DHT22;3613;48.902;9.204;2024-03-25T15:10:26;20.60;99.90
7143;DHT22;3613;48.902;9.204;2024-03-25T15:12:51;20.60;99.90
7143;DHT22;3613;48.902;9.204;2024-03-25T15:15:20;20.50;99.90
7143;DHT22;3613;48.902;9.204;2024-03-25T15:17:45;20.50;99.90
7143;DHT22;3613;48.902;9.204;2024-03-25T15:20:11;20.60;99.90
7143;DHT22;3613;48.902;9.204;2024-03-25T15:22:37;20.60;99.90
7143;DHT22;3613;48.902;9.204;2024-03-25T15:25:06;20.50;99.90
7143;DHT22;3613;48.902;9.204;2024-03-25T15:27:35;20.60;99.90
7143;DHT22;3613;48.902;9.204;2024-03-25T15:30:00;20.50;99.90
7143;DHT22;3613;48.902;9.204;2024-03-25T15:32:26;20.60;99.90
7143;DHT22;3613;48.902;9.204;2024-03-25T15:34:54;20.40;99.90
7143;DHT22;3613;48.902;9.204;2024-03-25T15:37:19;20.50;99.90
7143;DHT22;3613;48.902;9.204;2024-03-25T15:39:45;20.50;99.90
7143;DHT22;3613;48.902;9.204;2024-03-25T15:42:10;20.50;99.90
7143;DHT22;3613;48.902;9.204;2024-03-25T15:44:36;20.50;99.90
7143;DHT22;3613;48.902;9.204;2024-03-25T15:47:04;20.40;99.90
7143;DHT22;3613;48.902;9.204;2024-03-25T15:49:32;20.50;99.90
7143;DHT22;3613;48.902;9.204;2024-03-25T15:51:57;20.50;99.90
7143;DHT22;3613;48.902;9.204;2024-03-25T15:54:23;20.40;99.90
7143;DHT22;3613;48.902;9.204;2024-03-25T15:56:48;20.50;99.90
7143;DHT22;3613;48.902;9.204;2024-03-25T15:59:14;20.40;99.90
7143;DHT22;3613;48.902;9.204;2024-03-25T16:01:40;20.40;99.90
7143;DHT22;3613;48.902;9.204;2024-03-25T16:04:06;20.40;99.90